DLH23X EDDB-LFPG
Flight info
| Callsign | DLH23X |
|---|---|
| Flight time | 1h 20m |
| Altitude | 36000 |
| Route | KISUC1Q/06R KISUC Z20 MAG Z92 ABGUS DCT LENDO DCT KUDIN DCT RAPOR DCT VEDUS |
| Aircraft | A346/H-SDE2E3FGHIJ3J4J5M1RWXY/LB1D1 |
Departure
| Time | 2026-05-07 17:49 |
|---|---|
| Airport | Berlin Brandenburg Airport (EDDB) |
Arrival
| Time | 2026-05-07 19:10 |
|---|---|
| Airport | Charles de Gaulle International Airport (LFPG) |
| Time | Latitude | Longitude | Altitude | Speed | Heading |
|---|---|---|---|---|---|
| 2026-05-07 17:18 | 52.36417 | 13.50568 | 163 ft | 0 kts | 69° |
| 2026-05-07 17:33 | 52.36414 | 13.50556 | 163 ft | 4 kts | 69° |
| 2026-05-07 17:33 | 52.36404 | 13.50515 | 162 ft | 4 kts | 69° |
| 2026-05-07 17:33 | 52.36394 | 13.50474 | 162 ft | 4 kts | 69° |
| 2026-05-07 17:34 | 52.36386 | 13.50437 | 161 ft | 2 kts | 69° |
| 2026-05-07 17:34 | 52.36380 | 13.50402 | 160 ft | 4 kts | 90° |
| 2026-05-07 17:34 | 52.36384 | 13.50371 | 160 ft | 4 kts | 125° |
| 2026-05-07 17:34 | 52.36401 | 13.50348 | 159 ft | 4 kts | 154° |
| 2026-05-07 17:35 | 52.36424 | 13.50333 | 159 ft | 4 kts | 159° |
| 2026-05-07 17:35 | 52.36447 | 13.50318 | 159 ft | 1 kts | 159° |
| 2026-05-07 17:38 | 52.36446 | 13.50318 | 159 ft | 1 kts | 159° |
| 2026-05-07 17:38 | 52.36428 | 13.50330 | 159 ft | 5 kts | 159° |
| 2026-05-07 17:39 | 52.36371 | 13.50366 | 159 ft | 12 kts | 159° |
| 2026-05-07 17:39 | 52.36284 | 13.50384 | 159 ft | 15 kts | 191° |
| 2026-05-07 17:39 | 52.36175 | 13.50414 | 158 ft | 18 kts | 161° |
| 2026-05-07 17:39 | 52.36047 | 13.50495 | 158 ft | 21 kts | 158° |
| 2026-05-07 17:40 | 52.35900 | 13.50592 | 158 ft | 24 kts | 160° |
| 2026-05-07 17:40 | 52.35853 | 13.50620 | 158 ft | 0 kts | 160° |
| 2026-05-07 17:43 | 52.35850 | 13.50622 | 158 ft | 2 kts | 160° |
| 2026-05-07 17:43 | 52.35813 | 13.50642 | 157 ft | 9 kts | 173° |
| 2026-05-07 17:44 | 52.35767 | 13.50579 | 156 ft | 12 kts | 238° |
| 2026-05-07 17:44 | 52.35717 | 13.50390 | 156 ft | 22 kts | 249° |
| 2026-05-07 17:44 | 52.35658 | 13.50143 | 156 ft | 25 kts | 249° |
| 2026-05-07 17:44 | 52.35592 | 13.49868 | 156 ft | 27 kts | 249° |
| 2026-05-07 17:45 | 52.35526 | 13.49592 | 156 ft | 20 kts | 249° |
| 2026-05-07 17:45 | 52.35426 | 13.49455 | 155 ft | 20 kts | 208° |
| 2026-05-07 17:45 | 52.35354 | 13.49268 | 157 ft | 20 kts | 249° |
| 2026-05-07 17:45 | 52.35301 | 13.49040 | 157 ft | 22 kts | 249° |
| 2026-05-07 17:46 | 52.35242 | 13.48791 | 157 ft | 24 kts | 249° |
| 2026-05-07 17:46 | 52.35180 | 13.48525 | 157 ft | 26 kts | 249° |
| 2026-05-07 17:46 | 52.35113 | 13.48245 | 158 ft | 27 kts | 249° |
| 2026-05-07 17:46 | 52.35044 | 13.47953 | 158 ft | 28 kts | 249° |
| 2026-05-07 17:47 | 52.34971 | 13.47649 | 159 ft | 29 kts | 249° |
| 2026-05-07 17:47 | 52.34898 | 13.47342 | 159 ft | 28 kts | 248° |
| 2026-05-07 17:47 | 52.34833 | 13.47073 | 160 ft | 24 kts | 249° |
| 2026-05-07 17:47 | 52.34786 | 13.46876 | 160 ft | 17 kts | 249° |
| 2026-05-07 17:48 | 52.34748 | 13.46767 | 161 ft | 9 kts | 190° |
| 2026-05-07 17:48 | 52.34711 | 13.46778 | 163 ft | 0 kts | 166° |
| 2026-05-07 17:48 | 52.34636 | 13.46819 | 166 ft | 29 kts | 155° |
| 2026-05-07 17:48 | 52.34602 | 13.47051 | 167 ft | 24 kts | 72° |
| 2026-05-07 17:49 | 52.34754 | 13.47742 | 167 ft | 115 kts | 70° |
| 2026-05-07 17:49 | 52.35151 | 13.49429 | 248 ft | 192 kts | 70° |
| 2026-05-07 17:49 | 52.35610 | 13.51583 | 1342 ft | 201 kts | 77° |
| 2026-05-07 17:49 | 52.35382 | 13.53790 | 2894 ft | 196 kts | 119° |
| 2026-05-07 17:50 | 52.34468 | 13.55363 | 4039 ft | 193 kts | 145° |
| 2026-05-07 17:50 | 52.33137 | 13.55941 | 4698 ft | 208 kts | 180° |
| 2026-05-07 17:50 | 52.31699 | 13.55185 | 5016 ft | 234 kts | 212° |
| 2026-05-07 17:50 | 52.30344 | 13.53392 | 5044 ft | 270 kts | 221° |
| 2026-05-07 17:51 | 52.28861 | 13.51284 | 5596 ft | 288 kts | 220° |
| 2026-05-07 17:51 | 52.27499 | 13.48937 | 6790 ft | 283 kts | 240° |
| 2026-05-07 17:51 | 52.26835 | 13.45952 | 7943 ft | 280 kts | 257° |
| 2026-05-07 17:51 | 52.26437 | 13.42818 | 9016 ft | 283 kts | 259° |
| 2026-05-07 17:52 | 52.26053 | 13.39642 | 10028 ft | 287 kts | 258° |
| 2026-05-07 17:52 | 52.25626 | 13.36407 | 10891 ft | 296 kts | 257° |
| 2026-05-07 17:52 | 52.25142 | 13.33016 | 11483 ft | 314 kts | 256° |
| 2026-05-07 17:52 | 52.24612 | 13.29496 | 12036 ft | 333 kts | 256° |
| 2026-05-07 17:53 | 52.24025 | 13.25716 | 12595 ft | 352 kts | 255° |
| 2026-05-07 17:53 | 52.23389 | 13.21695 | 13219 ft | 368 kts | 255° |
| 2026-05-07 17:53 | 52.22737 | 13.17611 | 14102 ft | 374 kts | 255° |
| 2026-05-07 17:53 | 52.22080 | 13.13531 | 15009 ft | 378 kts | 255° |
| 2026-05-07 17:54 | 52.21404 | 13.09358 | 15883 ft | 383 kts | 256° |
| 2026-05-07 17:54 | 52.20717 | 13.05123 | 16760 ft | 388 kts | 256° |
| 2026-05-07 17:54 | 52.20018 | 13.00826 | 17614 ft | 394 kts | 256° |
| 2026-05-07 17:54 | 52.19310 | 12.96485 | 18463 ft | 398 kts | 256° |
| 2026-05-07 17:55 | 52.18592 | 12.92093 | 19221 ft | 403 kts | 256° |
| 2026-05-07 17:55 | 52.17858 | 12.87611 | 19992 ft | 408 kts | 256° |
| 2026-05-07 17:55 | 52.17120 | 12.83116 | 20767 ft | 412 kts | 256° |
| 2026-05-07 17:55 | 52.16374 | 12.78593 | 21519 ft | 416 kts | 256° |
| 2026-05-07 17:56 | 52.15617 | 12.74011 | 22249 ft | 421 kts | 256° |
| 2026-05-07 17:56 | 52.14850 | 12.69381 | 23004 ft | 425 kts | 256° |
| 2026-05-07 17:56 | 52.14072 | 12.64703 | 23741 ft | 429 kts | 256° |
| 2026-05-07 17:56 | 52.13287 | 12.59985 | 24362 ft | 433 kts | 256° |
| 2026-05-07 17:57 | 52.12493 | 12.55227 | 24982 ft | 438 kts | 256° |
| 2026-05-07 17:57 | 52.11949 | 12.51978 | 25398 ft | 440 kts | 256° |
| 2026-05-07 17:57 | 52.10873 | 12.45572 | 26204 ft | 446 kts | 256° |
| 2026-05-07 17:57 | 52.10048 | 12.40680 | 26820 ft | 450 kts | 255° |
| 2026-05-07 17:58 | 52.09214 | 12.35743 | 27427 ft | 453 kts | 255° |
| 2026-05-07 17:58 | 52.08371 | 12.30773 | 28027 ft | 457 kts | 255° |
| 2026-05-07 17:58 | 52.07520 | 12.25771 | 28646 ft | 461 kts | 255° |
| 2026-05-07 17:58 | 52.06659 | 12.20730 | 29335 ft | 461 kts | 255° |
| 2026-05-07 17:59 | 52.05802 | 12.15723 | 29921 ft | 458 kts | 255° |
| 2026-05-07 17:59 | 52.04945 | 12.10735 | 30078 ft | 457 kts | 255° |
| 2026-05-07 17:59 | 52.03227 | 12.00786 | 30077 ft | 456 kts | 255° |
| 2026-05-07 18:00 | 52.01501 | 11.90843 | 30166 ft | 461 kts | 255° |
| 2026-05-07 18:00 | 52.00923 | 11.87527 | 30516 ft | 462 kts | 254° |
| 2026-05-07 18:00 | 52.00039 | 11.82464 | 31424 ft | 455 kts | 254° |
| 2026-05-07 18:01 | 51.99180 | 11.77523 | 32343 ft | 449 kts | 255° |
| 2026-05-07 18:01 | 51.98361 | 11.72703 | 33069 ft | 447 kts | 255° |
| 2026-05-07 18:01 | 51.97537 | 11.67827 | 33713 ft | 448 kts | 255° |
| 2026-05-07 18:01 | 51.96711 | 11.62952 | 34291 ft | 448 kts | 255° |
| 2026-05-07 18:02 | 51.95033 | 11.53129 | 35222 ft | 450 kts | 254° |
| 2026-05-07 18:02 | 51.94201 | 11.48286 | 35633 ft | 453 kts | 254° |
| 2026-05-07 18:02 | 51.93348 | 11.43345 | 36003 ft | 455 kts | 254° |
| 2026-05-07 18:03 | 51.92490 | 11.38392 | 36090 ft | 457 kts | 254° |
| 2026-05-07 18:03 | 51.90753 | 11.28421 | 36091 ft | 458 kts | 254° |
| 2026-05-07 18:04 | 51.89019 | 11.18495 | 36091 ft | 458 kts | 254° |
| 2026-05-07 18:04 | 51.87278 | 11.08567 | 36082 ft | 458 kts | 253° |
| 2026-05-07 18:05 | 51.85204 | 10.98821 | 36084 ft | 457 kts | 249° |
| 2026-05-07 18:05 | 51.82949 | 10.89183 | 36081 ft | 457 kts | 249° |
| 2026-05-07 18:06 | 51.80685 | 10.79568 | 36070 ft | 457 kts | 249° |
| 2026-05-07 18:06 | 51.78401 | 10.69913 | 36067 ft | 457 kts | 249° |
| 2026-05-07 18:07 | 51.76119 | 10.60310 | 36062 ft | 457 kts | 249° |
| 2026-05-07 18:07 | 51.73832 | 10.50723 | 36064 ft | 457 kts | 249° |
| 2026-05-07 18:08 | 51.71538 | 10.41155 | 36066 ft | 457 kts | 249° |
| 2026-05-07 18:08 | 51.69235 | 10.31587 | 36072 ft | 457 kts | 249° |
| 2026-05-07 18:09 | 51.66926 | 10.22037 | 36073 ft | 456 kts | 249° |
| 2026-05-07 18:09 | 51.64610 | 10.12498 | 36069 ft | 456 kts | 249° |
| 2026-05-07 18:10 | 51.62286 | 10.02971 | 36070 ft | 456 kts | 249° |
| 2026-05-07 18:10 | 51.59936 | 9.93380 | 36070 ft | 456 kts | 249° |
| 2026-05-07 18:11 | 51.57596 | 9.83866 | 36070 ft | 456 kts | 249° |
| 2026-05-07 18:11 | 51.55253 | 9.74385 | 36069 ft | 456 kts | 248° |
| 2026-05-07 18:12 | 51.52902 | 9.64914 | 36070 ft | 456 kts | 248° |
| 2026-05-07 18:12 | 51.50545 | 9.55454 | 36067 ft | 456 kts | 248° |
| 2026-05-07 18:13 | 51.48178 | 9.45997 | 36074 ft | 455 kts | 248° |
| 2026-05-07 18:13 | 51.45808 | 9.36567 | 36069 ft | 455 kts | 248° |
| 2026-05-07 18:14 | 51.43430 | 9.27145 | 36069 ft | 455 kts | 248° |
| 2026-05-07 18:14 | 51.41043 | 9.17728 | 36076 ft | 455 kts | 248° |
| 2026-05-07 18:15 | 51.38652 | 9.08337 | 36071 ft | 455 kts | 248° |
| 2026-05-07 18:15 | 51.36246 | 8.98924 | 36077 ft | 455 kts | 248° |
| 2026-05-07 18:16 | 51.33842 | 8.89555 | 36073 ft | 454 kts | 248° |
| 2026-05-07 18:16 | 51.31429 | 8.80195 | 36076 ft | 454 kts | 248° |
| 2026-05-07 18:17 | 51.29016 | 8.70870 | 36075 ft | 454 kts | 248° |
| 2026-05-07 18:17 | 51.26592 | 8.61543 | 36077 ft | 453 kts | 248° |
| 2026-05-07 18:18 | 51.24154 | 8.52203 | 36070 ft | 453 kts | 248° |
| 2026-05-07 18:18 | 51.21713 | 8.42888 | 36066 ft | 453 kts | 248° |
| 2026-05-07 18:19 | 51.19288 | 8.33669 | 36063 ft | 453 kts | 248° |
| 2026-05-07 18:19 | 51.16839 | 8.24398 | 36067 ft | 452 kts | 248° |
| 2026-05-07 18:20 | 51.14387 | 8.15150 | 36074 ft | 452 kts | 247° |
| 2026-05-07 18:20 | 51.11926 | 8.05911 | 36056 ft | 452 kts | 247° |
| 2026-05-07 18:21 | 51.09467 | 7.96715 | 36055 ft | 451 kts | 247° |
| 2026-05-07 18:21 | 51.07002 | 7.87533 | 36068 ft | 451 kts | 247° |
| 2026-05-07 18:22 | 51.04531 | 7.78365 | 36046 ft | 450 kts | 247° |
| 2026-05-07 18:22 | 51.02052 | 7.69205 | 36061 ft | 450 kts | 247° |
| 2026-05-07 18:23 | 50.99634 | 7.60300 | 36060 ft | 450 kts | 247° |
| 2026-05-07 18:23 | 50.97130 | 7.51120 | 36059 ft | 449 kts | 247° |
| 2026-05-07 18:24 | 50.94639 | 7.42024 | 36066 ft | 449 kts | 246° |
| 2026-05-07 18:24 | 50.92159 | 7.32999 | 36069 ft | 448 kts | 246° |
| 2026-05-07 18:25 | 50.89657 | 7.23932 | 36072 ft | 448 kts | 246° |
| 2026-05-07 18:25 | 50.87151 | 7.14887 | 36071 ft | 448 kts | 246° |
| 2026-05-07 18:26 | 50.84637 | 7.05846 | 36072 ft | 448 kts | 246° |
| 2026-05-07 18:26 | 50.82119 | 6.96830 | 36067 ft | 447 kts | 246° |
| 2026-05-07 18:27 | 50.79599 | 6.87837 | 36043 ft | 447 kts | 246° |
| 2026-05-07 18:27 | 50.77071 | 6.78851 | 36044 ft | 446 kts | 246° |
| 2026-05-07 18:28 | 50.74538 | 6.69885 | 36043 ft | 446 kts | 246° |
| 2026-05-07 18:28 | 50.71987 | 6.60936 | 36027 ft | 446 kts | 244° |
| 2026-05-07 18:29 | 50.68390 | 6.52996 | 36043 ft | 447 kts | 226° |
| 2026-05-07 18:29 | 50.63678 | 6.46551 | 36048 ft | 447 kts | 220° |
| 2026-05-07 18:30 | 50.58877 | 6.40314 | 36048 ft | 447 kts | 221° |
| 2026-05-07 18:30 | 50.54083 | 6.34069 | 36049 ft | 447 kts | 221° |
| 2026-05-07 18:31 | 50.49296 | 6.27828 | 36048 ft | 447 kts | 221° |
| 2026-05-07 18:31 | 50.44506 | 6.21588 | 36046 ft | 447 kts | 221° |
| 2026-05-07 18:32 | 50.39722 | 6.15369 | 36054 ft | 446 kts | 221° |
| 2026-05-07 18:32 | 50.34935 | 6.09164 | 36051 ft | 446 kts | 221° |
| 2026-05-07 18:33 | 50.30139 | 6.02964 | 36052 ft | 446 kts | 221° |
| 2026-05-07 18:33 | 50.25348 | 5.96787 | 36050 ft | 446 kts | 221° |
| 2026-05-07 18:34 | 50.20552 | 5.90621 | 36051 ft | 446 kts | 221° |
| 2026-05-07 18:34 | 50.15750 | 5.84464 | 36056 ft | 446 kts | 221° |
| 2026-05-07 18:35 | 50.10946 | 5.78320 | 35973 ft | 446 kts | 221° |
| 2026-05-07 18:35 | 50.08547 | 5.75259 | 35658 ft | 446 kts | 221° |
| 2026-05-07 18:35 | 50.06144 | 5.72196 | 35370 ft | 446 kts | 221° |
| 2026-05-07 18:35 | 50.03737 | 5.69134 | 35074 ft | 446 kts | 221° |
| 2026-05-07 18:36 | 50.01362 | 5.66133 | 34823 ft | 446 kts | 221° |
| 2026-05-07 18:36 | 49.98946 | 5.63090 | 34584 ft | 446 kts | 221° |
| 2026-05-07 18:36 | 49.96535 | 5.60051 | 34341 ft | 446 kts | 221° |
| 2026-05-07 18:36 | 49.94121 | 5.57007 | 34107 ft | 446 kts | 221° |
| 2026-05-07 18:37 | 49.91713 | 5.53969 | 33834 ft | 446 kts | 221° |
| 2026-05-07 18:37 | 49.89299 | 5.50925 | 33549 ft | 447 kts | 221° |
| 2026-05-07 18:37 | 49.86887 | 5.47887 | 33261 ft | 448 kts | 221° |
| 2026-05-07 18:37 | 49.84463 | 5.44839 | 33019 ft | 448 kts | 221° |
| 2026-05-07 18:38 | 49.82042 | 5.41799 | 32736 ft | 449 kts | 221° |
| 2026-05-07 18:38 | 49.79610 | 5.38750 | 32458 ft | 449 kts | 221° |
| 2026-05-07 18:38 | 49.77177 | 5.35702 | 32190 ft | 450 kts | 221° |
| 2026-05-07 18:38 | 49.74755 | 5.32632 | 31902 ft | 449 kts | 223° |
| 2026-05-07 18:39 | 49.72522 | 5.29308 | 31495 ft | 441 kts | 229° |
| 2026-05-07 18:39 | 49.70579 | 5.25667 | 30989 ft | 437 kts | 235° |
| 2026-05-07 18:39 | 49.68948 | 5.21717 | 30586 ft | 436 kts | 242° |
| 2026-05-07 18:40 | 49.66620 | 5.13050 | 30414 ft | 438 kts | 252° |
| 2026-05-07 18:40 | 49.65694 | 5.08563 | 30225 ft | 439 kts | 253° |
| 2026-05-07 18:40 | 49.64783 | 5.04061 | 29948 ft | 439 kts | 253° |
| 2026-05-07 18:40 | 49.63870 | 4.99553 | 29658 ft | 440 kts | 253° |
| 2026-05-07 18:41 | 49.62951 | 4.95037 | 29363 ft | 441 kts | 253° |
| 2026-05-07 18:41 | 49.62025 | 4.90514 | 28942 ft | 442 kts | 253° |
| 2026-05-07 18:41 | 49.61096 | 4.85990 | 28383 ft | 443 kts | 253° |
| 2026-05-07 18:41 | 49.60267 | 4.81444 | 27908 ft | 436 kts | 257° |
| 2026-05-07 18:42 | 49.59748 | 4.76885 | 27813 ft | 428 kts | 263° |
| 2026-05-07 18:42 | 49.59525 | 4.72302 | 27731 ft | 428 kts | 268° |
| 2026-05-07 18:42 | 49.59504 | 4.67712 | 27258 ft | 426 kts | 270° |
| 2026-05-07 18:42 | 49.59527 | 4.63166 | 26810 ft | 422 kts | 270° |
| 2026-05-07 18:43 | 49.59558 | 4.58655 | 26371 ft | 418 kts | 270° |
| 2026-05-07 18:43 | 49.59584 | 4.54190 | 25942 ft | 414 kts | 270° |
| 2026-05-07 18:43 | 49.59605 | 4.49755 | 25522 ft | 411 kts | 270° |
| 2026-05-07 18:43 | 49.59622 | 4.45363 | 25098 ft | 408 kts | 270° |
| 2026-05-07 18:44 | 49.59635 | 4.41004 | 24676 ft | 405 kts | 270° |
| 2026-05-07 18:44 | 49.59646 | 4.36670 | 24257 ft | 402 kts | 270° |
| 2026-05-07 18:44 | 49.59655 | 4.32381 | 23833 ft | 399 kts | 270° |
| 2026-05-07 18:44 | 49.59661 | 4.28114 | 23378 ft | 395 kts | 269° |
| 2026-05-07 18:45 | 49.59666 | 4.23892 | 22923 ft | 391 kts | 269° |
| 2026-05-07 18:45 | 49.59668 | 4.19713 | 22491 ft | 387 kts | 269° |
| 2026-05-07 18:45 | 49.59670 | 4.15579 | 22084 ft | 383 kts | 269° |
| 2026-05-07 18:45 | 49.59658 | 4.11494 | 21662 ft | 379 kts | 267° |
| 2026-05-07 18:46 | 49.59264 | 4.07493 | 21243 ft | 375 kts | 255° |
| 2026-05-07 18:46 | 49.58366 | 4.03789 | 20836 ft | 372 kts | 244° |
| 2026-05-07 18:46 | 49.57056 | 4.00366 | 20431 ft | 370 kts | 238° |
| 2026-05-07 18:46 | 49.55653 | 3.97050 | 20031 ft | 367 kts | 237° |
| 2026-05-07 18:47 | 49.54249 | 3.93773 | 19636 ft | 365 kts | 237° |
| 2026-05-07 18:47 | 49.52856 | 3.90510 | 19239 ft | 363 kts | 237° |
| 2026-05-07 18:47 | 49.51477 | 3.87262 | 18837 ft | 361 kts | 238° |
| 2026-05-07 18:47 | 49.50108 | 3.84027 | 18424 ft | 360 kts | 238° |
| 2026-05-07 18:48 | 49.49187 | 3.81846 | 18143 ft | 358 kts | 238° |
| 2026-05-07 18:48 | 49.47997 | 3.78543 | 17708 ft | 356 kts | 245° |
| 2026-05-07 18:48 | 49.47064 | 3.75035 | 17285 ft | 353 kts | 251° |
| 2026-05-07 18:48 | 49.46371 | 3.71373 | 16893 ft | 350 kts | 255° |
| 2026-05-07 18:49 | 49.45761 | 3.67756 | 16494 ft | 348 kts | 256° |
| 2026-05-07 18:49 | 49.45163 | 3.64151 | 16099 ft | 346 kts | 256° |
| 2026-05-07 18:49 | 49.44565 | 3.60570 | 15871 ft | 356 kts | 255° |
| 2026-05-07 18:49 | 49.43937 | 3.56852 | 15892 ft | 362 kts | 255° |
| 2026-05-07 18:50 | 49.43299 | 3.53098 | 15893 ft | 363 kts | 255° |
| 2026-05-07 18:50 | 49.42659 | 3.49336 | 15540 ft | 363 kts | 255° |
| 2026-05-07 18:50 | 49.41963 | 3.45627 | 15092 ft | 360 kts | 252° |
| 2026-05-07 18:50 | 49.41113 | 3.42027 | 14817 ft | 355 kts | 248° |
| 2026-05-07 18:51 | 49.40178 | 3.38501 | 14847 ft | 358 kts | 248° |
| 2026-05-07 18:51 | 49.39231 | 3.34961 | 14877 ft | 358 kts | 248° |
| 2026-05-07 18:51 | 49.38282 | 3.31418 | 14898 ft | 358 kts | 248° |
| 2026-05-07 18:51 | 49.37332 | 3.27879 | 14931 ft | 358 kts | 248° |
| 2026-05-07 18:52 | 49.36381 | 3.24344 | 14948 ft | 358 kts | 248° |
| 2026-05-07 18:52 | 49.35427 | 3.20800 | 14968 ft | 359 kts | 248° |
| 2026-05-07 18:52 | 49.34474 | 3.17266 | 14989 ft | 359 kts | 248° |
| 2026-05-07 18:52 | 49.33518 | 3.13723 | 15012 ft | 359 kts | 247° |
| 2026-05-07 18:53 | 49.32563 | 3.10189 | 15035 ft | 359 kts | 247° |
| 2026-05-07 18:53 | 49.31604 | 3.06645 | 15041 ft | 359 kts | 247° |
| 2026-05-07 18:53 | 49.30647 | 3.03115 | 15039 ft | 359 kts | 247° |
| 2026-05-07 18:53 | 49.29687 | 2.99579 | 14973 ft | 359 kts | 247° |
| 2026-05-07 18:54 | 49.28724 | 2.96038 | 14481 ft | 359 kts | 247° |
| 2026-05-07 18:54 | 49.27764 | 2.92513 | 14022 ft | 357 kts | 247° |
| 2026-05-07 18:54 | 49.26811 | 2.89018 | 13555 ft | 353 kts | 247° |
| 2026-05-07 18:54 | 49.25867 | 2.85567 | 13117 ft | 349 kts | 247° |
| 2026-05-07 18:55 | 49.25045 | 2.82562 | 12750 ft | 346 kts | 247° |
| 2026-05-07 18:55 | 49.24163 | 2.79342 | 12348 ft | 342 kts | 247° |
| 2026-05-07 18:55 | 49.23243 | 2.75992 | 11946 ft | 338 kts | 247° |
| 2026-05-07 18:55 | 49.22335 | 2.72690 | 11569 ft | 335 kts | 247° |
| 2026-05-07 18:56 | 49.21444 | 2.69456 | 11478 ft | 321 kts | 247° |
| 2026-05-07 18:56 | 49.20595 | 2.66375 | 11383 ft | 308 kts | 246° |
| 2026-05-07 18:56 | 49.19780 | 2.63421 | 11280 ft | 295 kts | 246° |
| 2026-05-07 18:56 | 49.18995 | 2.60580 | 11192 ft | 284 kts | 246° |
| 2026-05-07 18:57 | 49.18348 | 2.57792 | 11101 ft | 274 kts | 255° |
| 2026-05-07 18:57 | 49.18038 | 2.54930 | 10875 ft | 273 kts | 265° |
| 2026-05-07 18:57 | 49.17949 | 2.52019 | 10550 ft | 274 kts | 267° |
| 2026-05-07 18:57 | 49.17900 | 2.49106 | 10240 ft | 273 kts | 268° |
| 2026-05-07 18:58 | 49.17851 | 2.46202 | 9935 ft | 273 kts | 267° |
| 2026-05-07 18:58 | 49.17797 | 2.43351 | 9611 ft | 271 kts | 267° |
| 2026-05-07 18:58 | 49.17736 | 2.40489 | 9310 ft | 268 kts | 267° |
| 2026-05-07 18:58 | 49.17672 | 2.37664 | 9059 ft | 262 kts | 266° |
| 2026-05-07 18:59 | 49.17530 | 2.34920 | 8859 ft | 253 kts | 264° |
| 2026-05-07 18:59 | 49.17363 | 2.32300 | 8605 ft | 243 kts | 264° |
| 2026-05-07 18:59 | 49.17197 | 2.29773 | 8365 ft | 233 kts | 264° |
| 2026-05-07 18:59 | 49.17038 | 2.27354 | 8164 ft | 224 kts | 264° |
| 2026-05-07 19:00 | 49.16885 | 2.25034 | 7971 ft | 214 kts | 264° |
| 2026-05-07 19:00 | 49.16740 | 2.22824 | 7777 ft | 203 kts | 264° |
| 2026-05-07 19:00 | 49.16603 | 2.20737 | 7601 ft | 192 kts | 264° |
| 2026-05-07 19:00 | 49.16473 | 2.18761 | 7441 ft | 181 kts | 264° |
| 2026-05-07 19:01 | 49.16350 | 2.16908 | 7271 ft | 170 kts | 264° |
| 2026-05-07 19:01 | 49.16141 | 2.15165 | 7131 ft | 166 kts | 248° |
| 2026-05-07 19:01 | 49.15510 | 2.13697 | 7022 ft | 167 kts | 225° |
| 2026-05-07 19:01 | 49.14520 | 2.12731 | 6946 ft | 174 kts | 201° |
| 2026-05-07 19:02 | 49.13257 | 2.12472 | 6627 ft | 193 kts | 175° |
| 2026-05-07 19:02 | 49.11917 | 2.12907 | 6297 ft | 197 kts | 166° |
| 2026-05-07 19:02 | 49.10595 | 2.13463 | 5982 ft | 197 kts | 165° |
| 2026-05-07 19:02 | 49.09282 | 2.14026 | 5701 ft | 196 kts | 165° |
| 2026-05-07 19:03 | 49.07970 | 2.14573 | 5424 ft | 194 kts | 165° |
| 2026-05-07 19:03 | 49.06683 | 2.15096 | 5173 ft | 193 kts | 165° |
| 2026-05-07 19:03 | 49.05388 | 2.15614 | 4930 ft | 192 kts | 165° |
| 2026-05-07 19:03 | 49.04098 | 2.16126 | 4655 ft | 191 kts | 165° |
| 2026-05-07 19:04 | 49.02816 | 2.16632 | 4393 ft | 190 kts | 165° |
| 2026-05-07 19:04 | 49.01609 | 2.17340 | 4120 ft | 184 kts | 141° |
| 2026-05-07 19:04 | 49.00948 | 2.18912 | 4002 ft | 175 kts | 107° |
| 2026-05-07 19:04 | 49.00769 | 2.20748 | 4012 ft | 176 kts | 92° |
| 2026-05-07 19:05 | 49.00817 | 2.22612 | 4029 ft | 176 kts | 85° |
| 2026-05-07 19:05 | 49.00955 | 2.24464 | 4018 ft | 176 kts | 84° |
| 2026-05-07 19:05 | 49.01092 | 2.26321 | 3811 ft | 175 kts | 84° |
| 2026-05-07 19:05 | 49.01209 | 2.28145 | 3571 ft | 169 kts | 85° |
| 2026-05-07 19:06 | 49.01307 | 2.29890 | 3344 ft | 162 kts | 85° |
| 2026-05-07 19:06 | 49.01480 | 2.33292 | 2924 ft | 160 kts | 86° |
| 2026-05-07 19:06 | 49.01564 | 2.34984 | 2717 ft | 159 kts | 86° |
| 2026-05-07 19:07 | 49.01648 | 2.36674 | 2500 ft | 159 kts | 85° |
| 2026-05-07 19:07 | 49.01733 | 2.38359 | 2289 ft | 159 kts | 85° |
| 2026-05-07 19:07 | 49.01819 | 2.40033 | 2068 ft | 158 kts | 85° |
| 2026-05-07 19:07 | 49.01905 | 2.41700 | 1846 ft | 157 kts | 86° |
| 2026-05-07 19:08 | 49.01989 | 2.43312 | 1613 ft | 147 kts | 86° |
| 2026-05-07 19:08 | 49.02068 | 2.44826 | 1412 ft | 142 kts | 86° |
| 2026-05-07 19:08 | 49.02146 | 2.46322 | 1235 ft | 141 kts | 86° |
| 2026-05-07 19:08 | 49.02225 | 2.47821 | 1038 ft | 142 kts | 85° |
| 2026-05-07 19:09 | 49.02303 | 2.49300 | 842 ft | 141 kts | 85° |
| 2026-05-07 19:09 | 49.02381 | 2.50793 | 653 ft | 141 kts | 84° |
| 2026-05-07 19:09 | 49.02462 | 2.52283 | 449 ft | 140 kts | 84° |
| 2026-05-07 19:09 | 49.02544 | 2.53711 | 369 ft | 117 kts | 84° |
| 2026-05-07 19:10 | 49.02593 | 2.54668 | 367 ft | 65 kts | 85° |
| 2026-05-07 19:10 | 49.02604 | 2.55142 | 369 ft | 34 kts | 105° |
| 2026-05-07 19:10 | 49.02521 | 2.55465 | 368 ft | 33 kts | 114° |
| 2026-05-07 19:10 | 49.02348 | 2.55617 | 366 ft | 30 kts | 173° |
| 2026-05-07 19:11 | 49.02134 | 2.55644 | 364 ft | 30 kts | 192° |
| 2026-05-07 19:11 | 49.02055 | 2.55382 | 364 ft | 30 kts | 264° |
| 2026-05-07 19:11 | 49.02036 | 2.55059 | 365 ft | 32 kts | 265° |
| 2026-05-07 19:11 | 49.02019 | 2.54712 | 367 ft | 33 kts | 266° |
| 2026-05-07 19:12 | 49.02002 | 2.54353 | 369 ft | 31 kts | 266° |
| 2026-05-07 19:12 | 49.01916 | 2.54128 | 367 ft | 21 kts | 194° |
| 2026-05-07 19:12 | 49.01808 | 2.54037 | 367 ft | 19 kts | 243° |
| 2026-05-07 19:12 | 49.01742 | 2.53840 | 368 ft | 23 kts | 238° |
| 2026-05-07 19:13 | 49.01622 | 2.53670 | 367 ft | 25 kts | 207° |
| 2026-05-07 19:13 | 49.01445 | 2.53610 | 364 ft | 28 kts | 179° |
| 2026-05-07 19:13 | 49.01269 | 2.53672 | 367 ft | 13 kts | 160° |
| 2026-05-07 19:13 | 49.01200 | 2.53658 | 369 ft | 7 kts | 200° |
| 2026-05-07 19:14 | 49.01173 | 2.53640 | 367 ft | 1 kts | 205° |
| 2026-05-07 19:14 | 49.01158 | 2.53629 | 367 ft | 3 kts | 205° |
| 2026-05-07 19:14 | 49.01150 | 2.53623 | 369 ft | 1 kts | 205° |
| 2026-05-07 19:14 | 49.01149 | 2.53623 | 369 ft | 0 kts | 205° |
| 2026-05-07 19:16 | 49.01157 | 2.53629 | 366 ft | 0 kts | 206° |